Time;durP1;ratioP1;P1;durP2;ratioP2;P2;SDS_P1;SDS_P2;PMS_P1;PMS_P2;Temp;Humidity;BMP_temperature;BMP_pressure;BME280_temperature;BME280_humidity;BME280_pressure;Samples;Min_cycle;Max_cycle;Signal;HPM_P1;HPM_P2
2022/04/02 00:00:28;;;;;;;;;11.50;8.50;;;;;4.36;87.69;100689.50;4769530;29;45687;-82
2022/04/02 00:02:57;;;;;;;;;5.00;4.00;;;;;4.36;87.29;100679.13;4769633;29;46104;-82
2022/04/02 00:05:22;;;;;;;;;8.00;7.75;;;;;4.35;87.32;100674.00;4769716;29;45715;-83
2022/04/02 00:11:09;;;;;;;;;8.00;7.00;;;;;4.33;87.18;100684.44;4769412;29;46062;-82
2022/04/02 00:13:35;;;;;;;;;7.75;7.00;;;;;4.30;87.51;100694.09;4752914;29;46482;-82
2022/04/02 00:16:01;;;;;;;;;10.25;10.25;;;;;4.31;87.47;100690.59;4769604;29;45859;-82
2022/04/02 00:18:29;;;;;;;;;10.00;7.00;;;;;4.25;86.46;100678.75;4769335;29;45536;-82
2022/04/02 00:20:54;;;;;;;;;11.00;7.75;;;;;4.28;87.20;100675.16;4769445;29;45561;-81
2022/04/02 00:26:05;;;;;;;;;7.75;4.00;;;;;4.29;87.09;100689.81;4768888;29;45925;-83
2022/04/02 00:28:32;;;;;;;;;6.50;6.50;;;;;4.30;86.79;100699.28;4769457;29;45657;-82
2022/04/02 00:30:58;;;;;;;;;5.00;4.50;;;;;4.30;86.63;100681.97;4768784;29;45661;-82
2022/04/02 00:33:23;;;;;;;;;6.50;5.00;;;;;4.31;86.29;100685.41;4768564;29;46194;-82
2022/04/02 00:35:48;;;;;;;;;4.75;3.50;;;;;4.26;86.22;100677.84;4752100;29;45749;-82
2022/04/02 00:38:14;;;;;;;;;8.00;5.00;;;;;4.30;86.37;100694.94;4769287;29;45699;-81
2022/04/02 00:40:42;;;;;;;;;5.00;4.75;;;;;4.30;85.13;100686.31;4753352;29;47213;-83
2022/04/02 00:43:21;;;;;;;;;5.50;2.00;;;;;4.31;86.48;100682.81;4769276;29;45661;-82
2022/04/02 00:45:46;;;;;;;;;5.00;5.00;;;;;4.31;86.37;100726.91;4752588;29;45871;-84
2022/04/02 00:48:11;;;;;;;;;4.75;4.00;;;;;4.28;85.64;100670.81;4768957;29;45592;-82
2022/04/02 00:50:37;;;;;;;;;4.50;3.50;;;;;4.30;85.31;100678.53;4768962;29;46525;-82
2022/04/02 00:56:24;;;;;;;;;4.00;4.00;;;;;4.25;82.09;100694.31;4768564;29;45857;-82
2022/04/02 00:58:50;;;;;;;;;4.00;4.00;;;;;4.21;84.06;100688.41;4768971;29;45499;-82
2022/04/02 01:01:16;;;;;;;;;4.00;4.00;;;;;4.22;84.18;100669.34;4768767;29;45574;-82
2022/04/02 01:03:43;;;;;;;;;8.50;5.00;;;;;4.21;85.65;100672.84;4768618;29;46027;-83
2022/04/02 01:06:10;;;;;;;;;4.00;2.50;;;;;4.19;84.82;100682.44;4768858;29;45785;-81
2022/04/02 01:08:37;;;;;;;;;3.50;3.50;;;;;4.17;84.92;100678.22;4768702;29;45660;-81
2022/04/02 01:11:03;;;;;;;;;2.00;2.00;;;;;4.18;84.54;100675.56;4768753;29;46450;-81
2022/04/02 01:13:31;;;;;;;;;1.75;1.75;;;;;4.17;85.62;100675.63;4768312;29;46499;-82
2022/04/02 01:15:59;;;;;;;;;4.00;2.00;;;;;4.16;84.46;100682.56;4752224;29;45809;-82
2022/04/02 01:18:24;;;;;;;;;4.00;2.00;;;;;4.14;85.50;100663.66;4768670;29;45696;-82
2022/04/02 01:20:50;;;;;;;;;2.50;2.50;;;;;4.17;85.85;100671.28;4768689;29;45712;-82
2022/04/02 01:26:37;;;;;;;;;3.50;3.50;;;;;4.13;85.48;100669.75;4768228;29;45634;-79
2022/04/02 01:29:03;;;;;;;;;2.00;1.50;;;;;4.12;84.69;100669.81;4768414;29;45585;-81
2022/04/02 01:31:29;;;;;;;;;7.00;2.50;;;;;4.09;84.51;100675.16;4768715;29;46207;-81
2022/04/02 01:33:55;;;;;;;;;2.00;2.00;;;;;4.11;85.99;100675.91;4768436;29;46211;-80
2022/04/02 01:36:21;;;;;;;;;4.25;4.00;;;;;4.09;85.28;100678.59;4768499;29;45590;-81
2022/04/02 01:42:09;;;;;;;;;1.50;1.50;;;;;4.05;83.86;100683.97;4767965;29;45627;-82
2022/04/02 01:44:35;;;;;;;;;3.50;2.00;;;;;4.04;83.23;100671.91;4768350;29;45679;-81
2022/04/02 01:47:02;;;;;;;;;4.00;2.50;;;;;4.00;83.93;100685.88;4771610;29;45963;-82
2022/04/02 01:49:28;;;;;;;;;6.00;4.00;;;;;3.96;84.90;100676.56;4771474;29;45712;-81
2022/04/02 01:51:53;;;;;;;;;4.25;2.50;;;;;3.95;85.76;100687.84;4771275;29;46440;-82
2022/04/02 01:54:20;;;;;;;;;2.00;1.25;;;;;3.92;85.02;100686.22;4771556;29;45615;-81
2022/04/02 01:56:46;;;;;;;;;4.00;3.00;;;;;3.95;86.01;100705.97;4754916;29;45889;-82
2022/04/02 01:59:12;;;;;;;;;2.00;1.00;;;;;3.93;85.12;100713.00;4754967;29;45680;-82
2022/04/02 02:01:38;;;;;;;;;2.50;1.25;;;;;3.91;84.79;100696.66;4771397;29;45588;-80
2022/04/02 02:04:03;;;;;;;;;4.25;3.50;;;;;3.88;83.53;100708.00;4771527;29;45555;-81
2022/04/02 02:06:29;;;;;;;;;2.00;2.00;;;;;3.85;81.73;100705.53;4771889;29;45530;-82
2022/04/02 02:12:16;;;;;;;;;2.00;2.00;;;;;3.84;85.11;100718.53;4771521;29;46183;-81
2022/04/02 02:14:42;;;;;;;;;3.50;2.00;;;;;3.82;85.05;100713.44;4771573;29;46021;-82
2022/04/02 02:17:08;;;;;;;;;3.00;2.00;;;;;3.80;84.82;100730.78;4771926;29;45818;-82
2022/04/02 02:19:33;;;;;;;;;4.00;3.00;;;;;3.77;83.22;100712.78;4771678;29;45773;-81
2022/04/02 02:21:59;;;;;;;;;2.00;2.00;;;;;3.75;83.94;100723.22;4771366;29;45897;-82
2022/04/02 02:24:25;;;;;;;;;3.50;3.50;;;;;3.74;84.08;100705.97;4771655;29;45684;-82
2022/04/02 02:26:50;;;;;;;;;1.50;1.50;;;;;3.71;84.88;100706.13;4771782;29;45591;-82
2022/04/02 02:29:15;;;;;;;;;1.75;1.00;;;;;3.67;85.43;100698.53;4771375;29;45908;-82
2022/04/02 02:31:41;;;;;;;;;4.00;4.00;;;;;3.67;85.22;100708.91;4771241;29;46429;-82
2022/04/02 02:36:50;;;;;;;;;2.00;2.00;;;;;3.64;85.60;100709.00;4770989;29;45889;-81
2022/04/02 02:42:38;;;;;;;;;4.50;4.00;;;;;3.61;84.85;100722.09;4770410;29;46130;-82
2022/04/02 02:45:04;;;;;;;;;2.50;2.50;;;;;3.59;86.06;100719.56;4770806;29;46123;-81
2022/04/02 02:47:30;;;;;;;;;4.00;4.00;;;;;3.58;85.60;100732.56;4770862;29;45735;-82
2022/04/02 02:49:56;;;;;;;;;6.25;4.00;;;;;3.52;85.35;100738.84;4771249;29;45703;-81
2022/04/02 02:52:21;;;;;;;;;5.00;4.00;;;;;3.48;85.71;100726.91;4770966;29;46384;-80
2022/04/02 02:54:47;;;;;;;;;7.50;3.50;;;;;3.49;86.00;100725.16;4771313;29;45679;-81
2022/04/02 02:57:12;;;;;;;;;2.25;2.25;;;;;3.49;85.80;100732.94;4770957;29;45881;-79
2022/04/02 02:59:38;;;;;;;;;7.00;6.00;;;;;3.46;86.95;100725.28;4771982;29;45856;-79
2022/04/02 03:02:04;;;;;;;;;5.50;3.50;;;;;3.41;86.74;100734.97;4755044;29;46406;-82
2022/04/02 03:04:30;;;;;;;;;4.00;4.00;;;;;3.43;86.09;100744.38;4770471;29;45566;-81
2022/04/02 03:06:58;;;;;;;;;4.25;4.00;;;;;3.38;86.01;100738.56;4770401;29;45998;-82
2022/04/02 03:12:47;;;;;;;;;4.75;4.00;;;;;3.31;86.52;100745.72;4770071;29;45576;-81
2022/04/02 03:15:15;;;;;;;;;4.25;3.75;;;;;3.30;84.55;100745.75;4770260;29;46218;-81
2022/04/02 03:17:43;;;;;;;;;6.25;4.00;;;;;3.27;85.76;100761.41;4770412;29;45785;-82
2022/04/02 03:20:11;;;;;;;;;5.50;5.25;;;;;3.25;86.64;100743.34;4753827;29;45669;-83
2022/04/02 03:22:40;;;;;;;;;7.50;4.00;;;;;3.22;85.88;100745.22;4770207;29;45413;-82
2022/04/02 03:25:10;;;;;;;;;5.50;4.00;;;;;3.20;86.28;100740.09;4769895;29;45713;-82
2022/04/02 03:27:37;;;;;;;;;4.75;4.75;;;;;3.19;86.59;100750.50;4770169;29;45618;-81
2022/04/02 03:30:04;;;;;;;;;4.25;4.25;;;;;3.16;86.77;100745.47;4770016;29;45832;-80
2022/04/02 03:32:29;;;;;;;;;3.75;3.50;;;;;3.19;86.36;100763.44;4769756;29;46860;-81
2022/04/02 03:34:55;;;;;;;;;7.25;4.00;;;;;3.17;86.64;100752.31;4770088;29;45696;-81
2022/04/02 03:37:20;;;;;;;;;5.25;5.00;;;;;3.16;85.79;100748.91;4770166;29;45684;-80
2022/04/02 03:43:08;;;;;;;;;4.00;4.00;;;;;3.13;87.57;100748.19;4769599;29;46147;-80
2022/04/02 03:45:34;;;;;;;;;9.75;5.25;;;;;3.14;86.81;100775.72;4770017;29;45976;-80
2022/04/02 03:47:59;;;;;;;;;5.50;4.00;;;;;3.12;86.05;100768.03;4769758;29;45635;-81
2022/04/02 03:50:25;;;;;;;;;4.00;4.00;;;;;3.12;87.07;100762.00;4770127;29;45627;-81
2022/04/02 03:52:53;;;;;;;;;3.75;3.00;;;;;3.10;85.79;100759.47;4769798;29;46160;-79
2022/04/02 03:55:18;;;;;;;;;3.25;2.00;;;;;3.08;85.83;100766.44;4769911;29;45742;-81
2022/04/02 03:57:47;;;;;;;;;2.50;2.50;;;;;3.06;86.94;100747.56;4769613;29;45599;-80
2022/04/02 04:00:13;;;;;;;;;5.25;5.25;;;;;3.08;87.45;100745.75;4769871;29;45665;-80
2022/04/02 04:02:39;;;;;;;;;7.00;4.00;;;;;3.07;86.07;100774.28;4769535;29;45638;-80
2022/04/02 04:05:06;;;;;;;;;3.25;1.75;;;;;3.03;86.73;100752.00;4769485;29;45552;-81
2022/04/02 04:07:32;;;;;;;;;5.75;4.75;;;;;3.05;86.94;100757.97;4769567;29;45721;-81
2022/04/02 04:13:18;;;;;;;;;4.00;3.00;;;;;3.01;86.80;100754.66;4769273;29;46109;-81
2022/04/02 04:15:44;;;;;;;;;7.00;7.00;;;;;2.99;87.00;100756.44;4769452;29;45810;-81
2022/04/02 04:18:09;;;;;;;;;7.00;5.50;;;;;2.98;86.75;100767.69;4769653;29;45544;-81
2022/04/02 04:20:35;;;;;;;;;10.00;5.25;;;;;2.93;87.33;100759.25;4753143;29;45684;-81
2022/04/02 04:23:00;;;;;;;;;6.75;5.00;;;;;2.95;86.99;100776.44;4769419;29;46467;-81
2022/04/02 04:28:47;;;;;;;;;4.75;3.50;;;;;2.97;86.15;100791.88;4769228;29;45557;-82
2022/04/02 04:31:17;;;;;;;;;8.25;6.50;;;;;2.95;87.02;100785.94;4769050;29;45888;-81
2022/04/02 04:33:46;;;;;;;;;6.50;6.00;;;;;2.93;87.38;100779.97;4769257;29;46489;-82
2022/04/02 04:36:12;;;;;;;;;4.00;4.00;;;;;2.97;87.58;100794.47;4769378;29;46602;-81
2022/04/02 04:38:38;;;;;;;;;6.75;5.75;;;;;2.96;87.26;100800.56;4769308;29;45571;-81
2022/04/02 04:41:03;;;;;;;;;6.00;5.50;;;;;2.96;86.66;100787.63;4769481;29;45682;-80
2022/04/02 04:43:30;;;;;;;;;4.50;3.25;;;;;2.93;87.71;100798.06;4768909;29;46535;-81
2022/04/02 04:45:56;;;;;;;;;4.25;3.50;;;;;2.93;87.02;100795.47;4769013;29;46063;-82
2022/04/02 04:48:22;;;;;;;;;6.25;4.75;;;;;2.90;87.49;100793.88;4768858;29;45543;-81
2022/04/02 04:50:47;;;;;;;;;4.00;4.00;;;;;2.93;87.03;100801.50;4769105;29;45835;-82
2022/04/02 04:53:14;;;;;;;;;4.00;4.00;;;;;2.91;86.47;100798.16;4768914;29;45995;-81
2022/04/02 04:59:01;;;;;;;;;8.50;5.50;;;;;2.93;86.33;100829.97;4768700;29;45577;-82
2022/04/02 05:01:28;;;;;;;;;3.75;3.00;;;;;2.90;85.80;100804.22;4768839;29;45591;-81
2022/04/02 05:03:53;;;;;;;;;5.25;4.00;;;;;2.92;86.59;100814.50;4768539;29;45665;-81
2022/04/02 05:06:19;;;;;;;;;8.75;5.25;;;;;2.90;87.14;100817.16;4768602;29;45969;-81
2022/04/02 05:08:45;;;;;;;;;5.75;4.25;;;;;2.91;86.19;100823.19;4770648;29;45499;-81
2022/04/02 05:11:11;;;;;;;;;6.75;6.00;;;;;2.91;87.13;100825.75;4768751;29;45785;-80
2022/04/02 05:13:39;;;;;;;;;5.75;4.75;;;;;2.90;86.52;100817.16;4768455;29;45624;-81
2022/04/02 05:16:05;;;;;;;;;8.00;5.75;;;;;2.90;88.01;100834.41;4752216;29;47009;-81
2022/04/02 05:18:31;;;;;;;;;8.00;6.50;;;;;2.89;86.45;100835.31;4768639;29;45555;-83
2022/04/02 05:20:57;;;;;;;;;6.00;4.00;;;;;2.89;87.87;100825.81;4767810;29;45724;-80
2022/04/02 05:23:22;;;;;;;;;7.75;4.50;;;;;2.89;86.66;100833.56;4768432;29;45615;-79
2022/04/02 05:29:10;;;;;;;;;4.50;3.75;;;;;2.90;86.89;100850.78;4768044;29;45641;-81
2022/04/02 05:31:36;;;;;;;;;6.25;4.00;;;;;2.90;86.47;100844.78;4768769;29;45665;-81
2022/04/02 05:34:02;;;;;;;;;4.00;4.00;;;;;2.89;85.52;100845.66;4768656;29;45673;-81
2022/04/02 05:36:27;;;;;;;;;7.00;5.50;;;;;2.89;86.92;100851.69;4768557;29;46210;-81
2022/04/02 05:38:52;;;;;;;;;4.25;4.00;;;;;2.89;86.54;100843.06;4768483;29;45655;-81
2022/04/02 05:41:18;;;;;;;;;6.75;6.75;;;;;2.89;86.76;100838.75;4752210;29;45967;-81
2022/04/02 05:43:43;;;;;;;;;7.50;4.75;;;;;2.89;86.78;100864.63;4768350;29;45640;-81
2022/04/02 05:46:12;;;;;;;;;6.00;5.75;;;;;2.89;85.67;100853.41;4768429;29;45683;-81
2022/04/02 05:48:37;;;;;;;;;7.00;5.25;;;;;2.92;87.09;100856.72;4751952;29;45794;-79
2022/04/02 05:51:02;;;;;;;;;4.00;4.00;;;;;2.88;86.84;100862.06;4768497;29;45564;-81
2022/04/02 05:53:28;;;;;;;;;6.75;4.75;;;;;2.89;86.28;100851.69;4768314;29;46400;-80
2022/04/02 05:59:15;;;;;;;;;6.50;6.00;;;;;2.95;86.58;100868.72;4768029;29;45457;-80
2022/04/02 06:01:41;;;;;;;;;6.00;5.75;;;;;2.95;87.15;100882.50;4751941;29;45510;-81
2022/04/02 06:04:07;;;;;;;;;7.50;6.25;;;;;2.95;86.60;100879.09;4768320;29;45689;-82
2022/04/02 06:06:32;;;;;;;;;8.25;7.00;;;;;2.94;87.27;100886.00;4768217;29;45766;-82
2022/04/02 06:08:58;;;;;;;;;4.25;3.75;;;;;2.92;87.37;100892.97;4768112;29;45700;-82
2022/04/02 06:11:24;;;;;;;;;6.00;4.75;;;;;2.95;87.72;100890.28;4768254;29;45687;-81
2022/04/02 06:13:50;;;;;;;;;7.00;5.25;;;;;2.95;87.88;100887.69;4768659;29;46094;-82
2022/04/02 06:16:16;;;;;;;;;5.00;4.50;;;;;2.97;87.59;100893.63;4768062;29;45729;-81
2022/04/02 06:18:42;;;;;;;;;6.25;4.25;;;;;2.97;87.77;100891.06;4768064;29;45615;-78
2022/04/02 06:21:08;;;;;;;;;4.75;4.75;;;;;3.01;87.70;100885.78;4768057;29;45635;-78
2022/04/02 06:23:33;;;;;;;;;6.25;5.50;;;;;3.03;87.86;100892.56;4767945;29;46164;-81
2022/04/02 06:29:20;;;;;;;;;4.00;4.00;;;;;3.08;87.05;100898.44;4767562;29;45618;-80
2022/04/02 06:31:45;;;;;;;;;8.75;4.75;;;;;3.09;87.30;100907.88;4768107;29;45630;-78
2022/04/02 06:34:11;;;;;;;;;7.50;6.50;;;;;3.11;87.45;100903.50;4771105;29;46459;-78
2022/04/02 06:36:37;;;;;;;;;5.00;5.00;;;;;3.12;87.28;100902.63;4770908;29;45821;-77
2022/04/02 06:39:02;;;;;;;;;6.25;5.25;;;;;3.16;87.49;100900.75;4770715;29;45637;-77
2022/04/02 06:44:49;;;;;;;;;4.25;4.00;;;;;3.20;87.01;100913.53;4770677;29;46089;-78
2022/04/02 06:47:15;;;;;;;;;5.25;4.25;;;;;3.21;86.46;100938.53;4770630;29;45720;-77
2022/04/02 06:49:41;;;;;;;;;4.75;3.50;;;;;3.24;87.32;100953.13;4754117;29;45696;-76
2022/04/02 06:52:06;;;;;;;;;4.25;4.00;;;;;3.26;87.37;100928.00;4770933;29;45639;-80
2022/04/02 06:54:33;;;;;;;;;4.00;4.00;;;;;3.29;87.35;100920.13;4770571;29;45563;-76
2022/04/02 06:56:59;;;;;;;;;5.75;4.25;;;;;3.33;87.24;100932.06;4770328;29;46705;-76
2022/04/02 06:59:24;;;;;;;;;4.75;4.50;;;;;3.32;86.00;100933.81;4770567;29;45567;-78
2022/04/02 07:01:50;;;;;;;;;4.00;4.00;;;;;3.35;86.18;100927.66;4754261;29;45819;-78
2022/04/02 07:04:16;;;;;;;;;5.00;4.75;;;;;3.41;86.76;100929.19;4770343;29;45522;-77
2022/04/02 07:06:44;;;;;;;;;6.25;5.75;;;;;3.42;87.28;100944.66;4770387;29;46359;-76
2022/04/02 07:09:11;;;;;;;;;4.75;4.25;;;;;3.47;87.16;100923.78;4770173;29;45707;-79
2022/04/02 07:14:58;;;;;;;;;4.50;3.50;;;;;3.53;86.32;100939.09;4769926;29;46058;-79
2022/04/02 07:17:23;;;;;;;;;3.50;2.00;;;;;3.54;85.12;100935.63;4770361;29;45577;-77
2022/04/02 07:19:50;;;;;;;;;3.50;3.50;;;;;3.58;84.31;100944.94;4770124;29;45518;-81
2022/04/02 07:22:18;;;;;;;;;6.25;6.25;;;;;3.60;86.24;100967.31;4770309;29;45752;-77
2022/04/02 07:24:44;;;;;;;;;4.25;2.50;;;;;3.63;84.97;100943.03;4770107;29;45662;-79
2022/04/02 07:27:09;;;;;;;;;4.25;2.00;;;;;3.64;85.12;100931.78;4769769;29;46162;-77
2022/04/02 07:29:35;;;;;;;;;4.50;4.00;;;;;3.69;86.85;100953.19;4769543;29;45448;-79
2022/04/02 07:32:01;;;;;;;;;4.00;4.00;;;;;3.74;84.09;100952.09;4770005;29;45846;-78
2022/04/02 07:34:26;;;;;;;;;4.50;3.00;;;;;3.77;84.24;100962.38;4769545;29;47538;-79
2022/04/02 07:37:07;;;;;;;;;2.00;2.00;;;;;3.80;84.75;100982.97;4770003;29;45614;-76
2022/04/02 07:39:53;;;;;;;;;4.00;4.00;;;;;3.86;85.54;100949.94;4769893;29;45582;-75
2022/04/02 07:42:26;;;;;;;;;2.25;1.50;;;;;3.90;85.92;100960.13;4753589;29;45963;-79
2022/04/02 07:45:05;;;;;;;;;4.75;4.00;;;;;3.96;86.35;100954.72;4769661;29;46390;-79
2022/04/02 07:47:34;;;;;;;;;1.50;0.00;;;;;4.01;85.76;100962.31;4769761;29;45957;-79
2022/04/02 07:50:09;;;;;;;;;5.00;4.00;;;;;4.06;84.33;100958.66;4769381;29;45700;-76
2022/04/02 07:52:39;;;;;;;;;2.00;2.00;;;;;4.12;85.64;100967.94;4769600;29;45636;-79
2022/04/02 07:55:08;;;;;;;;;4.00;4.00;;;;;4.15;85.87;100966.09;4752960;29;47428;-78
2022/04/02 07:57:40;;;;;;;;;1.75;1.75;;;;;4.20;85.53;100969.34;4769020;29;46765;-78
2022/04/02 08:00:10;;;;;;;;;4.25;3.50;;;;;4.25;83.15;100961.38;4753289;29;45884;-77
2022/04/02 08:02:39;;;;;;;;;6.50;5.00;;;;;4.28;82.73;100996.72;4753007;29;45817;-78
2022/04/02 08:05:14;;;;;;;;;7.00;7.00;;;;;4.30;83.83;100969.81;4753351;29;46709;-78
2022/04/02 08:07:45;;;;;;;;;5.00;4.00;;;;;4.32;84.78;100993.94;4768816;29;46449;-78
2022/04/02 08:10:12;;;;;;;;;6.00;5.50;;;;;4.36;82.78;100979.97;4769006;29;45562;-78
2022/04/02 08:12:40;;;;;;;;;5.00;4.00;;;;;4.39;83.01;100973.78;4769037;29;45631;-82
2022/04/02 08:15:09;;;;;;;;;5.00;4.25;;;;;4.40;84.47;100993.63;4752877;29;47052;-78
2022/04/02 08:17:37;;;;;;;;;6.50;5.00;;;;;4.43;82.83;101009.06;4769350;29;45858;-79
2022/04/02 08:20:03;;;;;;;;;8.00;4.50;;;;;4.45;79.48;100973.56;4769165;29;45843;-78
2022/04/02 08:22:29;;;;;;;;;7.25;4.00;;;;;4.46;83.22;100986.47;4769315;29;45694;-77
2022/04/02 08:31:43;;;;;;;;;4.00;4.00;;;;;4.63;84.81;100999.63;4767961;29;45748;-76
2022/04/02 08:34:40;;;;;;;;;4.50;3.50;;;;;4.71;83.74;100999.28;4769049;29;45802;-77
2022/04/02 08:37:22;;;;;;;;;4.25;4.00;;;;;4.76;83.38;100986.97;4768639;29;46620;-75
2022/04/02 08:46:58;;;;;;;;;2.00;2.00;;;;;4.84;82.63;100999.63;4768853;29;45633;-82
2022/04/02 08:49:36;;;;;;;;;4.00;4.00;;;;;4.85;79.98;101014.31;4752308;29;47594;-82
2022/04/02 08:52:13;;;;;;;;;4.00;4.00;;;;;4.88;81.79;100994.25;4752362;29;47622;-84
2022/04/02 08:55:08;;;;;;;;;2.00;2.00;;;;;4.90;77.21;101005.44;4768002;29;45632;-83
2022/04/02 08:57:52;;;;;;;;;4.50;3.50;;;;;4.93;80.95;100994.06;4695730;30;46009;-86
2022/04/02 09:00:25;;;;;;;;;4.00;2.00;;;;;4.94;80.50;100998.34;4695645;30;45782;-80
2022/04/02 09:02:53;;;;;;;;;2.00;2.00;;;;;4.98;80.57;101015.47;4680756;30;48443;-80
2022/04/02 09:05:37;;;;;;;;;2.50;2.50;;;;;5.01;82.40;101005.84;4695637;30;45670;-81
2022/04/02 09:08:38;;;;;;;;;2.50;2.00;;;;;5.06;81.74;101008.22;4695211;30;45728;-81
2022/04/02 09:14:49;;;;;;;;;4.75;4.00;;;;;5.17;82.06;101054.53;4695370;30;45673;-78
2022/04/02 09:17:49;;;;;;;;;1.00;1.00;;;;;5.22;82.05;101031.78;4695784;30;45928;-79
2022/04/02 09:20:23;;;;;;;;;3.50;3.50;;;;;5.26;81.73;101020.34;4681419;30;45891;-82
2022/04/02 09:23:10;;;;;;;;;4.00;4.00;;;;;5.28;81.46;101018.56;4695296;30;46510;-81
2022/04/02 09:26:15;;;;;;;;;4.00;4.00;;;;;5.34;78.72;101013.09;4695592;30;45905;-82
2022/04/02 09:28:45;;;;;;;;;1.00;1.00;;;;;5.35;77.91;101001.78;4695416;30;45985;-83
2022/04/02 09:31:28;;;;;;;;;4.00;4.00;;;;;5.42;81.61;101014.44;4695406;30;45973;-81
2022/04/02 09:34:22;;;;;;;;;4.50;1.50;;;;;5.49;81.77;101031.47;4710557;29;46660;-82
2022/04/02 09:37:02;;;;;;;;;4.00;4.00;;;;;5.56;78.96;101023.41;4768955;29;46104;-81
2022/04/02 09:39:43;;;;;;;;;4.00;4.00;;;;;5.62;78.41;101010.97;4768817;29;45772;-82
2022/04/02 09:42:14;;;;;;;;;7.75;5.00;;;;;5.66;79.11;101022.09;4768711;29;45597;-81
2022/04/02 09:45:13;;;;;;;;;1.00;1.00;;;;;5.69;76.31;101027.97;4768881;29;46601;-81
2022/04/02 09:47:47;;;;;;;;;2.50;2.00;;;;;5.71;80.39;101017.53;4712798;30;46271;-82
2022/04/02 09:50:16;;;;;;;;;1.50;1.00;;;;;5.72;77.64;101016.63;4713506;30;45819;-81
2022/04/02 09:52:58;;;;;;;;;5.00;4.00;;;;;5.75;78.56;101017.31;4714032;30;45710;-80
2022/04/02 09:55:30;;;;;;;;;4.00;4.00;;;;;5.82;72.05;101020.50;4712952;30;46807;-79
2022/04/02 09:58:04;;;;;;;;;5.25;5.25;;;;;5.90;77.15;101053.06;4712453;30;46259;-78
2022/04/02 10:00:41;;;;;;;;;5.25;5.00;;;;;5.97;77.77;101045.00;4712636;30;45722;-79
2022/04/02 10:03:08;;;;;;;;;2.00;2.00;;;;;6.01;78.43;100997.13;4712418;30;45681;-79
2022/04/02 10:05:42;;;;;;;;;2.00;2.00;;;;;6.05;72.58;101016.88;4712504;30;45534;-79
2022/04/02 10:08:21;;;;;;;;;5.00;4.75;;;;;6.04;78.24;101021.25;4715647;30;46207;-79
2022/04/02 10:10:50;;;;;;;;;2.00;2.00;;;;;5.95;73.72;101016.44;4715381;30;45676;-79
2022/04/02 10:13:16;;;;;;;;;2.50;2.00;;;;;5.96;77.56;101040.69;4715245;30;45770;-78
2022/04/02 10:15:42;;;;;;;;;4.00;3.00;;;;;5.96;77.46;101023.34;4715318;30;45837;-82
2022/04/02 10:18:11;;;;;;;;;3.00;3.00;;;;;5.98;78.79;101023.28;4715854;30;45747;-78
2022/04/02 10:20:38;;;;;;;;;3.00;3.00;;;;;5.96;76.23;101038.94;4714951;30;45826;-78
2022/04/02 10:23:06;;;;;;;;;2.50;2.00;;;;;5.99;75.97;101031.03;4739412;29;45518;-77
2022/04/02 10:25:43;;;;;;;;;4.00;2.00;;;;;6.06;78.78;101039.38;4770607;29;46906;-77
2022/04/02 10:28:14;;;;;;;;;4.00;4.00;;;;;6.11;77.52;101035.63;4770192;29;46220;-78
2022/04/02 10:30:44;;;;;;;;;1.50;1.50;;;;;6.15;75.87;101025.97;4770315;29;45709;-77
2022/04/02 10:33:29;;;;;;;;;2.00;2.00;;;;;6.19;77.76;101032.69;4754543;29;45529;-81
2022/04/02 10:35:56;;;;;;;;;4.00;4.00;;;;;6.26;76.28;101042.72;4769604;29;45608;-77
2022/04/02 10:38:48;;;;;;;;;2.00;2.00;;;;;6.32;75.54;101013.84;4769900;29;45704;-77
2022/04/02 10:41:18;;;;;;;;;3.00;1.75;;;;;6.39;77.55;101032.59;4753600;29;45985;-79
2022/04/02 10:44:00;;;;;;;;;4.00;2.00;;;;;6.45;78.63;101023.66;4770149;29;45788;-76
2022/04/02 10:46:26;;;;;;;;;1.00;1.00;;;;;6.50;76.08;101037.31;4769822;29;47613;-77
2022/04/02 10:49:00;;;;;;;;;2.00;2.00;;;;;6.53;74.64;101031.97;4769807;29;47084;-78
2022/04/02 10:51:28;;;;;;;;;5.00;2.50;;;;;6.61;77.33;101015.06;4753676;29;45891;-77
2022/04/02 10:54:10;;;;;;;;;5.25;5.25;;;;;6.70;74.71;101045.00;4770338;29;45577;-80
2022/04/02 11:00:00;;;;;;;;;4.00;4.00;;;;;6.87;77.34;101019.00;4769615;29;46171;-78
2022/04/02 11:02:38;;;;;;;;;4.00;3.25;;;;;6.93;79.21;101049.09;4769787;29;45929;-77
2022/04/02 11:05:05;;;;;;;;;3.75;2.00;;;;;6.92;74.68;101040.44;4769789;29;45752;-79
2022/04/02 11:07:37;;;;;;;;;3.00;2.50;;;;;6.92;74.87;101014.41;4769363;29;45668;-77
2022/04/02 11:10:04;;;;;;;;;8.00;6.00;;;;;6.91;77.48;101027.50;4769960;29;45605;-76
2022/04/02 11:15:53;;;;;;;;;4.25;2.00;;;;;6.91;74.40;101056.16;4770090;29;45706;-76
2022/04/02 11:18:19;;;;;;;;;4.00;4.00;;;;;6.90;75.97;101003.22;4769521;29;45546;-77
2022/04/02 11:20:47;;;;;;;;;5.00;4.00;;;;;6.93;79.07;101008.28;4769971;29;46114;-77
2022/04/02 11:23:15;;;;;;;;;4.00;3.50;;;;;6.95;76.07;101011.66;4770265;29;45982;-79
2022/04/02 11:25:46;;;;;;;;;2.75;1.00;;;;;7.00;76.09;101003.59;4770111;29;45733;-78
2022/04/02 11:31:34;;;;;;;;;2.00;2.00;;;;;7.09;74.16;101030.03;4768352;29;46071;-79
2022/04/02 11:34:11;;;;;;;;;3.75;2.00;;;;;7.14;74.87;101022.84;4770003;29;45610;-77
2022/04/02 11:36:47;;;;;;;;;3.25;2.00;;;;;7.21;75.07;101009.50;4770188;29;45752;-78
2022/04/02 11:39:33;;;;;;;;;2.50;2.00;;;;;7.32;74.75;101012.41;4769441;29;47266;-77
2022/04/02 11:48:30;;;;;;;;;5.00;5.00;;;;;7.57;75.58;101029.31;4769077;29;45520;-77
2022/04/02 11:50:56;;;;;;;;;3.50;2.75;;;;;7.59;73.37;101019.66;4770073;29;45516;-78
2022/04/02 11:53:29;;;;;;;;;3.00;2.00;;;;;7.63;74.59;101019.47;4769954;29;46154;-78
2022/04/02 11:55:55;;;;;;;;;2.50;1.50;;;;;7.60;71.35;101025.72;4769705;29;45522;-78
2022/04/02 11:58:20;;;;;;;;;2.25;1.00;;;;;7.58;76.35;101017.13;4769972;29;45526;-78
2022/04/02 12:00:56;;;;;;;;;2.50;2.00;;;;;7.55;70.90;101118.97;4769869;29;45477;-77
2022/04/02 12:03:24;;;;;;;;;2.00;2.00;;;;;7.52;69.11;101020.03;4769807;29;45998;-77
2022/04/02 12:05:50;;;;;;;;;2.00;1.00;;;;;7.51;70.56;101013.97;4769744;29;45460;-75
2022/04/02 12:08:30;;;;;;;;;2.00;2.00;;;;;7.56;69.41;101009.38;4769339;29;45841;-81
2022/04/02 12:10:57;;;;;;;;;3.25;3.00;;;;;7.59;69.28;101001.41;4768904;29;46728;-82
2022/04/02 12:13:23;;;;;;;;;2.00;2.00;;;;;7.64;68.99;101005.53;4769515;29;46133;-78
2022/04/02 12:16:00;;;;;;;;;1.50;1.50;;;;;7.68;70.43;101012.25;4769422;29;45531;-76
2022/04/02 12:18:26;;;;;;;;;4.00;2.50;;;;;7.71;68.31;101025.16;4769478;29;45827;-80
2022/04/02 12:21:02;;;;;;;;;2.00;2.00;;;;;7.68;69.07;101022.69;4769229;29;47471;-79
2022/04/02 12:23:27;;;;;;;;;1.00;1.00;;;;;7.69;68.62;101040.88;4769218;29;46266;-79
2022/04/02 12:25:55;;;;;;;;;3.00;3.00;;;;;7.70;67.49;101032.13;4769301;29;45607;-78
2022/04/02 12:28:20;;;;;;;;;1.50;1.25;;;;;7.74;70.10;101036.25;4752876;29;45924;-78
2022/04/02 12:30:48;;;;;;;;;2.00;2.00;;;;;7.76;68.83;101042.25;4767581;29;47253;-77
2022/04/02 12:33:19;;;;;;;;;0.00;0.00;;;;;7.78;65.42;101027.34;4769296;29;46067;-80
2022/04/02 12:35:55;;;;;;;;;3.25;2.25;;;;;7.76;68.24;101041.41;4769596;29;45799;-79
2022/04/02 12:38:32;;;;;;;;;3.25;3.00;;;;;7.76;67.20;101021.38;4752336;29;45939;-80
2022/04/02 12:41:00;;;;;;;;;2.75;2.25;;;;;7.79;67.43;101026.41;4769225;29;45877;-78
2022/04/02 12:43:40;;;;;;;;;3.00;2.50;;;;;7.83;63.76;101032.31;4753075;29;47732;-77
2022/04/02 12:46:06;;;;;;;;;3.25;2.00;;;;;7.83;59.19;101054.00;4769195;29;45529;-79
2022/04/02 12:48:43;;;;;;;;;3.00;3.00;;;;;7.82;63.65;101046.28;4752790;29;45607;-77
2022/04/02 12:51:13;;;;;;;;;5.50;3.25;;;;;7.83;63.14;101054.00;4769038;29;46638;-81
2022/04/02 12:53:42;;;;;;;;;2.00;2.00;;;;;7.84;66.04;101036.59;4768807;29;46124;-78
2022/04/02 12:56:17;;;;;;;;;5.00;5.00;;;;;7.87;66.78;101037.31;4752502;29;45808;-80
2022/04/02 12:58:46;;;;;;;;;2.25;2.25;;;;;7.91;62.03;101035.38;4769004;29;45816;-79
2022/04/02 13:01:28;;;;;;;;;3.00;3.00;;;;;7.95;65.70;101029.91;4768717;29;47492;-79
2022/04/02 13:04:01;;;;;;;;;2.00;2.00;;;;;7.97;62.92;101033.28;4752314;29;47043;-76
2022/04/02 13:06:32;;;;;;;;;5.00;4.00;;;;;7.99;63.33;101020.97;4752294;29;45588;-78
2022/04/02 13:09:06;;;;;;;;;2.00;2.00;;;;;8.00;65.11;101055.72;4768533;29;45535;-78
2022/04/02 13:11:34;;;;;;;;;5.25;4.50;;;;;8.01;64.74;101039.16;4768553;29;47524;-82
2022/04/02 13:14:12;;;;;;;;;5.75;5.75;;;;;8.01;66.33;101058.28;4768875;29;46064;-75
2022/04/02 13:16:39;;;;;;;;;3.00;2.00;;;;;7.99;61.05;101039.22;4752302;29;45855;-78